Virtual Washington ARTCC

Weather

KBWI 202354Z 08010KT 10SM SCT018 OVC024 24/21 A3007 RMK AO2 SLP182 T02390206 10256 20233 55000
KDCA 210032Z 11008KT 10SM SCT026 OVC034 25/21 A3008 RMK AO2 T02500206
KIAD 202352Z 10005KT 10SM FEW022 BKN033 BKN048 BKN140 24/21 A3007 RMK AO2 SLP179 T02390211 10261 20239 53001
KORF 202351Z 10005KT 10SM FEW050 26/23 A3003 RMK AO2 SLP167 T02610228 10289 20261 53006
KRDU 202351Z 00000KT 10SM FEW035 SCT060 BKN250 27/23 A3002 RMK AO2 SLP161 T02670233 10306 20267 53005 $

TOP FIVE CONTROLLERS


Stats for 2018-08-01 to 2018-08-31
#Name:Hours:
1Tim Evans49.43
2Walter Sprinkle42.03
3Jared West33.41
4Aaron Albertson21.35
5Robert Shearman Jr14.94
Stats for 2018-7-01 to 2018-7-31
#Name:Hours:
1Jared West38.39
2Walter Sprinkle19.93
3Aaron Albertson14.47
4Tim Evans14.25
5Charles Mingroni9.02

Events



ZDC Activity

No controllers online.

News



The information contained on all pages of this website is to be used for flight simulation purposes only on the VATSIM network. It is not intended nor should it be used for real world navigation.This site is not affiliated with the FAA, the actual Washington Center or any governing aviation body. All content contained herein is approved only for use on the VATSIM network. ©2016 Virtual Washington ARTCC -- Source Code © 2016-2017 W. Guisbond and R. Rump.
By using this website you agree to all VATSIM Privacy Regulations as can be found on https://www.vatsim.net/documents/privacy-policy. This website uses cookie$